Tarazona, Spain
Current Conditions -  °F | °C
As of 10:30 AM on Friday 24 Oct 2014 (Local Time) from LEZG Reporting Station
Clear Clear  
Wind Chill: 64°   Ceiling: Unl
Heat Index: 64°   Visibility: 6mi
Dew Point: 37°   Wind: 13mph
Humidity: 37%   Direction: 290°WNW
Pressure: 30.09"   Gusts: NA
Location:  41.9°N, 1.73°W
Report Text: LEZG 240830Z 29011KT CAVOK 18/03 Q1019
Loading
Personal Weather Stations






























Interactive Weather Map
Tropical Storm Tracking
New forecast layout! Learn more

10-Day Weather Forecast

Advertisements
Track Severe Weather on mobile